Time;durP1;ratioP1;P1;durP2;ratioP2;P2;SDS_P1;SDS_P2;PMS_P1;PMS_P2;Temp;Humidity;BMP_temperature;BMP_pressure;BME280_temperature;BME280_humidity;BME280_pressure;Samples;Min_cycle;Max_cycle;Signal;HPM_P1;HPM_P2
2023/12/12 00:01:58;;;;;;;10.20;2.10;;;;;;;;;;4981019;28;20589;-72
2023/12/12 00:04:24;;;;;;;6.03;2.15;;;;;;;;;;4981661;28;20055;-72
2023/12/12 00:06:50;;;;;;;7.32;2.28;;;;;;;;;;4982846;28;20050;-72
2023/12/12 00:09:16;;;;;;;4.68;2.55;;;;;;;;;;4981612;28;20054;-72
2023/12/12 00:11:42;;;;;;;7.28;2.50;;;;;;;;;;4982918;28;20053;-72
2023/12/12 00:14:08;;;;;;;5.47;2.53;;;;;;;;;;4984892;28;20929;-72
2023/12/12 00:16:34;;;;;;;4.45;1.75;;;;;;;;;;4985639;28;20165;-72
2023/12/12 00:19:00;;;;;;;4.57;2.50;;;;;;;;;;4985229;28;20134;-72
2023/12/12 00:21:26;;;;;;;4.78;2.10;;;;;;;;;;4984966;28;20054;-72
2023/12/12 00:23:52;;;;;;;4.15;2.33;;;;;;;;;;4984817;28;20046;-72
2023/12/12 00:26:18;;;;;;;3.05;1.70;;;;;;;;;;4968970;28;20541;-72
2023/12/12 00:28:44;;;;;;;7.45;2.30;;;;;;;;;;4975058;28;20050;-72
2023/12/12 00:31:10;;;;;;;3.83;2.33;;;;;;;;;;4985066;28;20120;-72
2023/12/12 00:33:36;;;;;;;5.88;2.60;;;;;;;;;;4986072;28;20524;-72
2023/12/12 00:36:03;;;;;;;4.95;1.80;;;;;;;;;;4986122;28;20050;-72
2023/12/12 00:38:29;;;;;;;5.80;2.20;;;;;;;;;;4979830;28;20058;-72
2023/12/12 00:40:56;;;;;;;8.45;2.83;;;;;;;;;;4986056;28;20069;-72
2023/12/12 00:43:24;;;;;;;6.65;2.60;;;;;;;;;;4985830;28;20133;-72
2023/12/12 00:45:50;;;;;;;5.88;2.53;;;;;;;;;;4984098;28;20046;-72
2023/12/12 00:48:17;;;;;;;2.40;1.95;;;;;;;;;;4967754;28;20042;-72
2023/12/12 00:50:43;;;;;;;4.63;2.38;;;;;;;;;;4984306;28;20077;-72
2023/12/12 00:53:09;;;;;;;8.18;2.30;;;;;;;;;;4983610;28;20050;-71
2023/12/12 00:55:35;;;;;;;5.60;2.00;;;;;;;;;;4983886;28;20057;-72
2023/12/12 00:58:01;;;;;;;5.43;2.40;;;;;;;;;;4985637;28;20112;-72
2023/12/12 01:00:27;;;;;;;3.20;2.28;;;;;;;;;;4983628;28;20046;-72
2023/12/12 01:02:53;;;;;;;3.60;2.40;;;;;;;;;;4977256;28;20038;-72
2023/12/12 01:05:19;;;;;;;6.82;2.08;;;;;;;;;;4983447;28;20457;-72
2023/12/12 01:07:45;;;;;;;7.53;2.35;;;;;;;;;;4985418;28;20049;-72
2023/12/12 01:10:11;;;;;;;3.90;2.28;;;;;;;;;;4983790;28;20050;-72
2023/12/12 01:12:37;;;;;;;7.10;2.05;;;;;;;;;;4985487;28;20173;-72
2023/12/12 01:15:03;;;;;;;6.78;2.55;;;;;;;;;;4983951;28;20073;-72
2023/12/12 01:17:30;;;;;;;5.63;1.80;;;;;;;;;;4983754;28;20065;-72
2023/12/12 01:19:56;;;;;;;6.53;2.75;;;;;;;;;;4967604;28;20387;-72
2023/12/12 01:22:22;;;;;;;4.25;1.90;;;;;;;;;;4983145;28;20089;-72
2023/12/12 01:24:48;;;;;;;7.57;2.20;;;;;;;;;;4982970;28;20042;-72
2023/12/12 01:27:14;;;;;;;2.42;1.83;;;;;;;;;;4984647;28;20045;-72
2023/12/12 01:29:40;;;;;;;4.75;1.85;;;;;;;;;;4985050;28;20081;-72
2023/12/12 01:32:06;;;;;;;4.47;2.30;;;;;;;;;;4983357;28;20560;-72
2023/12/12 01:34:32;;;;;;;6.45;2.33;;;;;;;;;;4983409;28;20053;-72
2023/12/12 01:36:59;;;;;;;6.82;2.55;;;;;;;;;;4982930;28;20046;-72
2023/12/12 01:39:25;;;;;;;6.03;2.13;;;;;;;;;;4983931;28;20113;-72
2023/12/12 01:41:51;;;;;;;7.15;2.03;;;;;;;;;;4967762;28;20050;-72
2023/12/12 01:44:17;;;;;;;5.95;2.25;;;;;;;;;;4984860;28;20568;-72
2023/12/12 01:46:48;;;;;;;6.13;2.00;;;;;;;;;;4971680;28;20097;-72
2023/12/12 01:49:16;;;;;;;5.13;2.78;;;;;;;;;;4982652;28;20056;-72
2023/12/12 01:51:43;;;;;;;4.75;1.98;;;;;;;;;;4983155;28;20150;-72
2023/12/12 01:54:09;;;;;;;4.93;2.35;;;;;;;;;;4982761;28;20461;-72
2023/12/12 01:56:35;;;;;;;3.72;1.85;;;;;;;;;;4966903;28;20441;-72
2023/12/12 01:59:01;;;;;;;4.88;2.13;;;;;;;;;;4982796;28;20161;-72
2023/12/12 02:01:27;;;;;;;7.70;2.40;;;;;;;;;;4983984;28;20428;-72
2023/12/12 02:03:54;;;;;;;3.38;2.00;;;;;;;;;;4982888;28;20054;-72
2023/12/12 02:06:22;;;;;;;6.32;1.88;;;;;;;;;;4982775;28;20648;-72
2023/12/12 02:08:52;;;;;;;5.85;2.13;;;;;;;;;;4979291;28;20812;-72
2023/12/12 02:11:19;;;;;;;6.18;2.35;;;;;;;;;;4975936;28;20116;-72
2023/12/12 02:13:45;;;;;;;7.70;2.00;;;;;;;;;;4984255;28;20096;-72
2023/12/12 02:16:12;;;;;;;7.20;1.75;;;;;;;;;;4985793;28;20061;-72
2023/12/12 02:18:38;;;;;;;3.13;2.00;;;;;;;;;;4985372;28;20061;-72
2023/12/12 02:21:04;;;;;;;5.25;2.97;;;;;;;;;;5003755;28;20519;-72
2023/12/12 02:23:31;;;;;;;8.90;2.28;;;;;;;;;;5002924;28;20042;-72
2023/12/12 02:25:57;;;;;;;3.58;2.38;;;;;;;;;;4982622;28;20165;-72
2023/12/12 02:28:23;;;;;;;8.27;3.38;;;;;;;;;;4985518;28;20680;-72
2023/12/12 02:30:50;;;;;;;11.05;2.55;;;;;;;;;;4985385;28;20378;-72
2023/12/12 02:33:16;;;;;;;3.85;2.72;;;;;;;;;;5003269;28;20148;-72
2023/12/12 02:35:42;;;;;;;5.50;2.90;;;;;;;;;;4984156;28;20053;-72
2023/12/12 02:38:08;;;;;;;10.77;3.17;;;;;;;;;;4985880;28;20128;-72
2023/12/12 02:40:34;;;;;;;4.63;2.85;;;;;;;;;;5003394;28;20065;-72
2023/12/12 02:43:00;;;;;;;7.70;3.35;;;;;;;;;;4978885;28;20038;-72
2023/12/12 02:45:26;;;;;;;9.50;3.10;;;;;;;;;;4982375;28;20049;-72
2023/12/12 02:47:52;;;;;;;8.43;3.50;;;;;;;;;;4982128;28;20179;-72
2023/12/12 02:50:18;;;;;;;6.68;3.33;;;;;;;;;;4983808;28;20042;-72
2023/12/12 02:52:44;;;;;;;6.60;3.40;;;;;;;;;;4985468;28;20042;-72
2023/12/12 02:55:10;;;;;;;3.80;2.70;;;;;;;;;;5001110;28;20041;-72
2023/12/12 02:57:36;;;;;;;7.47;3.42;;;;;;;;;;4982197;28;20497;-72
2023/12/12 03:00:03;;;;;;;9.32;3.25;;;;;;;;;;4984170;28;20041;-72
2023/12/12 03:02:30;;;;;;;7.85;3.30;;;;;;;;;;4985375;28;20045;-72
2023/12/12 03:04:57;;;;;;;6.57;3.15;;;;;;;;;;4984381;28;20056;-72
2023/12/12 03:07:23;;;;;;;6.10;2.85;;;;;;;;;;5002581;28;20132;-72
2023/12/12 03:09:49;;;;;;;7.55;3.33;;;;;;;;;;5002330;28;20049;-72
2023/12/12 03:12:16;;;;;;;5.93;3.42;;;;;;;;;;4984615;28;20056;-72
2023/12/12 03:14:42;;;;;;;8.70;2.97;;;;;;;;;;5001840;28;20136;-72
2023/12/12 03:17:08;;;;;;;9.73;3.78;;;;;;;;;;4984999;28;20074;-72
2023/12/12 03:19:34;;;;;;;5.03;3.67;;;;;;;;;;5001619;28;20042;-72
2023/12/12 03:22:00;;;;;;;12.80;4.07;;;;;;;;;;5002111;28;20425;-72
2023/12/12 03:24:26;;;;;;;8.48;4.00;;;;;;;;;;4979412;28;20168;-72
2023/12/12 03:26:52;;;;;;;8.68;3.63;;;;;;;;;;4980492;28;20719;-72
2023/12/12 03:29:18;;;;;;;8.20;4.15;;;;;;;;;;5001343;28;20042;-72
2023/12/12 03:31:44;;;;;;;9.02;4.13;;;;;;;;;;5002406;28;20038;-72
2023/12/12 03:34:10;;;;;;;11.23;4.72;;;;;;;;;;4997046;28;20125;-72
2023/12/12 03:36:36;;;;;;;7.45;3.75;;;;;;;;;;4997772;28;20120;-72
2023/12/12 03:39:02;;;;;;;12.80;4.80;;;;;;;;;;4982961;28;20505;-72
2023/12/12 03:41:29;;;;;;;12.25;4.80;;;;;;;;;;5002042;28;20048;-72
2023/12/12 03:43:55;;;;;;;10.77;4.20;;;;;;;;;;4994964;28;20053;-72
2023/12/12 03:46:21;;;;;;;7.90;3.55;;;;;;;;;;5003197;28;20076;-72
2023/12/12 03:48:47;;;;;;;6.90;3.33;;;;;;;;;;4988406;28;20046;-72
2023/12/12 03:51:13;;;;;;;5.20;3.17;;;;;;;;;;4971683;28;20049;-72
2023/12/12 03:53:39;;;;;;;7.05;3.38;;;;;;;;;;4985783;28;20148;-72
2023/12/12 03:56:06;;;;;;;8.77;3.60;;;;;;;;;;4981680;28;20044;-72
2023/12/12 03:58:32;;;;;;;15.02;4.25;;;;;;;;;;5003549;28;20103;-72
2023/12/12 04:00:58;;;;;;;11.30;3.38;;;;;;;;;;5006263;28;20516;-72
2023/12/12 04:03:24;;;;;;;9.27;3.85;;;;;;;;;;4986328;28;20091;-72
2023/12/12 04:05:50;;;;;;;8.00;3.88;;;;;;;;;;4967743;28;20050;-72
2023/12/12 04:08:16;;;;;;;11.00;4.30;;;;;;;;;;4982857;28;20096;-73
2023/12/12 04:10:43;;;;;;;13.27;4.57;;;;;;;;;;4987980;28;20136;-72
2023/12/12 04:13:09;;;;;;;11.93;5.85;;;;;;;;;;4985440;28;20089;-72
2023/12/12 04:15:35;;;;;;;11.63;5.35;;;;;;;;;;4985593;28;20456;-72
2023/12/12 04:18:00;;;;;;;15.70;6.10;;;;;;;;;;4982861;28;20058;-72
2023/12/12 04:20:27;;;;;;;14.15;7.43;;;;;;;;;;5004596;28;20089;-72
2023/12/12 04:22:52;;;;;;;20.92;7.95;;;;;;;;;;4987236;28;20496;-72
2023/12/12 04:25:23;;;;;;;13.90;7.63;;;;;;;;;;4987303;28;20049;-72
2023/12/12 04:27:49;;;;;;;24.95;9.02;;;;;;;;;;4981180;28;20041;-72
2023/12/12 04:30:15;;;;;;;33.97;8.75;;;;;;;;;;4987875;28;20053;-72
2023/12/12 04:32:41;;;;;;;37.45;9.70;;;;;;;;;;5004788;28;20103;-72
2023/12/12 04:35:08;;;;;;;96.25;11.70;;;;;;;;;;4971430;28;20166;-72
2023/12/12 04:37:34;;;;;;;45.55;9.38;;;;;;;;;;4997350;28;20041;-72
2023/12/12 04:40:01;;;;;;;77.63;10.68;;;;;;;;;;5004583;28;21026;-72
2023/12/12 04:42:27;;;;;;;95.43;13.65;;;;;;;;;;4984070;28;20053;-72
2023/12/12 04:44:53;;;;;;;72.07;11.75;;;;;;;;;;4987172;28;20049;-72
2023/12/12 04:47:19;;;;;;;42.83;9.45;;;;;;;;;;4987173;28;20794;-73
2023/12/12 04:49:45;;;;;;;22.80;9.73;;;;;;;;;;4987725;28;20748;-73
2023/12/12 04:52:11;;;;;;;37.75;9.38;;;;;;;;;;5000196;28;20045;-72
2023/12/12 04:54:37;;;;;;;22.23;8.73;;;;;;;;;;4987292;28;20042;-72
2023/12/12 04:57:03;;;;;;;22.42;8.82;;;;;;;;;;4983667;28;20508;-72
2023/12/12 04:59:29;;;;;;;21.73;8.70;;;;;;;;;;5003859;28;20058;-72
2023/12/12 05:01:55;;;;;;;13.80;7.13;;;;;;;;;;4987667;28;20570;-73
2023/12/12 05:04:21;;;;;;;15.50;7.78;;;;;;;;;;4971280;28;20057;-72
2023/12/12 05:06:47;;;;;;;18.95;8.63;;;;;;;;;;4986640;28;20047;-72
2023/12/12 05:09:13;;;;;;;16.15;8.20;;;;;;;;;;4986421;28;20054;-72
2023/12/12 05:11:39;;;;;;;22.15;10.20;;;;;;;;;;4983455;28;20845;-72
2023/12/12 05:14:06;;;;;;;23.50;9.02;;;;;;;;;;4986812;28;20065;-72
2023/12/12 05:16:32;;;;;;;12.30;5.82;;;;;;;;;;4986172;28;20049;-72
2023/12/12 05:18:58;;;;;;;11.95;5.18;;;;;;;;;;4987418;28;20045;-72
2023/12/12 05:21:25;;;;;;;20.90;5.70;;;;;;;;;;4987086;28;20045;-72
2023/12/12 05:23:51;;;;;;;9.63;5.53;;;;;;;;;;4987021;28;20451;-72
2023/12/12 05:26:18;;;;;;;4.18;3.50;;;;;;;;;;4979278;28;20552;-73
2023/12/12 05:28:44;;;;;;;4.35;3.60;;;;;;;;;;4980814;28;20057;-73
2023/12/12 05:31:10;;;;;;;5.25;3.55;;;;;;;;;;4987155;28;20135;-72
2023/12/12 05:33:36;;;;;;;5.43;3.83;;;;;;;;;;4987372;28;20120;-72
2023/12/12 05:36:02;;;;;;;5.30;3.42;;;;;;;;;;4986921;28;20576;-72
2023/12/12 05:38:28;;;;;;;4.65;3.45;;;;;;;;;;4986642;28;20501;-73
2023/12/12 05:40:56;;;;;;;4.43;3.50;;;;;;;;;;4986296;28;20073;-73
2023/12/12 05:43:22;;;;;;;5.05;4.10;;;;;;;;;;4986610;28;20042;-74
2023/12/12 05:45:48;;;;;;;6.55;4.03;;;;;;;;;;4986373;28;20412;-74
2023/12/12 05:48:14;;;;;;;10.40;5.47;;;;;;;;;;4984319;28;20069;-74
2023/12/12 05:50:40;;;;;;;13.80;7.10;;;;;;;;;;5004471;28;20081;-73
2023/12/12 05:53:06;;;;;;;15.32;7.95;;;;;;;;;;4986862;28;20050;-74
2023/12/12 05:55:32;;;;;;;21.08;8.57;;;;;;;;;;4986263;28;20807;-74
2023/12/12 05:57:58;;;;;;;25.15;9.15;;;;;;;;;;4986413;28;20048;-74
2023/12/12 06:00:27;;;;;;;39.05;11.25;;;;;;;;;;4983290;28;20045;-74
2023/12/12 06:02:54;;;;;;;39.97;11.15;;;;;;;;;;5003862;28;20416;-74
2023/12/12 06:05:20;;;;;;;52.90;12.15;;;;;;;;;;4970516;28;20784;-74
2023/12/12 06:07:46;;;;;;;66.65;15.02;;;;;;;;;;4981350;28;20048;-74
2023/12/12 06:10:12;;;;;;;60.65;13.13;;;;;;;;;;4984369;28;20050;-74
2023/12/12 06:12:38;;;;;;;68.40;14.70;;;;;;;;;;4985546;28;20037;-74
2023/12/12 06:15:08;;;;;;;72.50;14.65;;;;;;;;;;5003259;28;20058;-74
2023/12/12 06:17:35;;;;;;;63.80;15.20;;;;;;;;;;4998845;28;20041;-74
2023/12/12 06:20:01;;;;;;;48.45;14.82;;;;;;;;;;4968701;28;20555;-74
2023/12/12 06:22:27;;;;;;;43.70;14.90;;;;;;;;;;4981437;28;20907;-74
2023/12/12 06:24:54;;;;;;;41.03;14.38;;;;;;;;;;4985796;28;20509;-74
2023/12/12 06:27:20;;;;;;;45.30;15.07;;;;;;;;;;4997643;28;20042;-74
2023/12/12 06:29:48;;;;;;;39.42;12.77;;;;;;;;;;4986219;28;20041;-74
2023/12/12 06:32:14;;;;;;;53.80;14.88;;;;;;;;;;4986445;28;20069;-74
2023/12/12 06:34:43;;;;;;;67.80;14.70;;;;;;;;;;4986245;28;20129;-74
2023/12/12 06:37:09;;;;;;;47.03;15.95;;;;;;;;;;4985890;28;20554;-74
2023/12/12 06:39:35;;;;;;;42.90;16.58;;;;;;;;;;4986904;28;20045;-74
2023/12/12 06:42:01;;;;;;;56.47;16.02;;;;;;;;;;5004162;28;20056;-73
2023/12/12 06:44:27;;;;;;;75.38;16.90;;;;;;;;;;4983602;28;20051;-74
2023/12/12 06:46:53;;;;;;;103.93;15.82;;;;;;;;;;4984028;28;21267;-73
2023/12/12 06:49:19;;;;;;;125.22;19.55;;;;;;;;;;4985987;28;20046;-74
2023/12/12 06:51:45;;;;;;;55.72;15.65;;;;;;;;;;4985107;28;20454;-75
2023/12/12 06:54:11;;;;;;;73.05;17.27;;;;;;;;;;4985303;28;20049;-74
2023/12/12 06:56:37;;;;;;;87.03;18.40;;;;;;;;;;4985228;28;20045;-74
2023/12/12 06:59:05;;;;;;;129.98;19.23;;;;;;;;;;4985326;28;20139;-75
2023/12/12 07:01:31;;;;;;;115.72;20.10;;;;;;;;;;4989223;28;20054;-74
2023/12/12 07:03:57;;;;;;;144.63;21.27;;;;;;;;;;4984771;28;20060;-75
2023/12/12 07:06:23;;;;;;;151.07;20.08;;;;;;;;;;4985377;28;20069;-75
2023/12/12 07:08:49;;;;;;;81.05;16.70;;;;;;;;;;5002507;28;20052;-75
2023/12/12 07:11:16;;;;;;;176.05;23.70;;;;;;;;;;4985575;28;20053;-76
2023/12/12 07:13:42;;;;;;;63.22;15.90;;;;;;;;;;4992690;28;20528;-75
2023/12/12 07:16:10;;;;;;;83.10;16.85;;;;;;;;;;4987600;28;20049;-75
2023/12/12 07:18:37;;;;;;;72.10;18.50;;;;;;;;;;5002486;28;20071;-73
2023/12/12 07:21:03;;;;;;;100.22;19.40;;;;;;;;;;4969203;28;20056;-73
2023/12/12 07:23:30;;;;;;;74.20;17.27;;;;;;;;;;4988147;28;20531;-73
2023/12/12 07:25:56;;;;;;;122.47;21.40;;;;;;;;;;5007094;28;20046;-73
2023/12/12 07:28:23;;;;;;;124.05;20.63;;;;;;;;;;4993267;28;20064;-73
2023/12/12 07:30:49;;;;;;;116.25;20.63;;;;;;;;;;4988778;28;20049;-73
2023/12/12 07:33:15;;;;;;;69.32;19.45;;;;;;;;;;4989683;28;20045;-73
2023/12/12 07:35:41;;;;;;;120.95;21.98;;;;;;;;;;4971685;28;20115;-72
2023/12/12 07:38:07;;;;;;;159.60;22.63;;;;;;;;;;4988500;28;20578;-73
2023/12/12 07:40:33;;;;;;;88.35;19.10;;;;;;;;;;4988261;28;20427;-72
2023/12/12 07:42:59;;;;;;;175.35;24.17;;;;;;;;;;4988233;28;20041;-73
2023/12/12 07:45:25;;;;;;;126.45;21.05;;;;;;;;;;4988079;28;20056;-73
2023/12/12 07:47:51;;;;;;;103.05;20.02;;;;;;;;;;4989998;28;20077;-73
2023/12/12 07:50:17;;;;;;;134.40;22.95;;;;;;;;;;4989042;28;20125;-72
2023/12/12 07:52:44;;;;;;;109.57;20.55;;;;;;;;;;4992348;28;20050;-73
2023/12/12 07:55:10;;;;;;;232.45;27.83;;;;;;;;;;5006368;28;20057;-72
2023/12/12 07:57:36;;;;;;;223.30;26.15;;;5.70;99.90;;;;;;4988296;28;20048;-73
2023/12/12 08:00:06;;;;;;;150.73;22.67;;;;;;;;;;4988266;28;20085;-73
2023/12/12 08:02:32;;;;;;;151.15;23.30;;;;;;;;;;4981782;28;20523;-72
2023/12/12 08:04:58;;;;;;;191.45;22.63;;;;;;;;;;4989218;28;20497;-73
2023/12/12 08:07:24;;;;;;;83.72;18.02;;;;;;;;;;4988708;28;20042;-72
2023/12/12 08:09:50;;;;;;;121.32;20.88;;;;;;;;;;4991778;28;20041;-72
2023/12/12 08:12:16;;;;;;;172.30;22.75;;;;;;;;;;4987633;28;20087;-72
2023/12/12 08:14:42;;;;;;;158.48;24.38;;;;;;;;;;5005168;28;20269;-73
2023/12/12 08:17:09;;;;;;;99.50;17.75;;;;;;;;;;4987826;28;20128;-73
2023/12/12 08:19:35;;;;;;;100.00;17.60;;;;;;;;;;4983917;28;20072;-73
2023/12/12 08:22:01;;;;;;;99.60;20.33;;;;;;;;;;5005438;28;20052;-73
2023/12/12 08:24:28;;;;;;;58.88;16.83;;;;;;;;;;4984417;28;20052;-73
2023/12/12 08:26:54;;;;;;;60.45;16.75;;;;;;;;;;4986789;28;20073;-73
2023/12/12 08:29:20;;;;;;;54.85;14.15;;;;;;;;;;4987927;28;20140;-74
2023/12/12 08:31:46;;;;;;;80.00;16.77;;;;;;;;;;4986682;28;20060;-74
2023/12/12 08:34:12;;;;;;;51.33;15.95;;;;;;;;;;4984694;28;20441;-73
2023/12/12 08:36:38;;;;;;;71.78;18.38;;;;;;;;;;4986003;28;20080;-73
2023/12/12 08:39:04;;;;;;;94.63;19.45;;;;;;;;;;4987369;28;20056;-73
2023/12/12 08:41:33;;;;;;;96.65;18.02;;;;;;;;;;4987523;28;20568;-72
2023/12/12 08:43:59;;;;;;;129.10;22.92;;;;;;;;;;4970128;28;20050;-72
2023/12/12 08:46:29;;;;;;;147.20;23.67;;;;;;;;;;4986903;28;20046;-72
2023/12/12 08:48:55;;;;;;;134.65;23.83;;;5.20;99.90;;;;;;4987129;28;20196;-72
2023/12/12 08:51:22;;;;;;;123.50;24.10;;;;;;;;;;5004516;28;20041;-73
2023/12/12 08:53:48;;;;;;;166.60;25.05;;;;;;;;;;4984809;28;20808;-73
2023/12/12 08:56:15;;;;;;;139.25;24.75;;;;;;;;;;5004694;28;20052;-73
2023/12/12 08:58:41;;;;;;;175.65;28.08;;;;;;;;;;4987014;28;20077;-72
2023/12/12 09:01:07;;;;;;;136.43;26.20;;;;;;;;;;4986733;28;20557;-72
2023/12/12 09:03:33;;;;;;;190.23;28.33;;;;;;;;;;4986909;28;20116;-72
2023/12/12 09:05:59;;;;;;;207.02;33.40;;;;;;;;;;5004548;28;20104;-72
2023/12/12 09:08:26;;;;;;;140.27;26.73;;;;;;;;;;4986485;28;20120;-73
2023/12/12 09:10:52;;;;;;;157.20;27.73;;;;;;;;;;4985864;28;20049;-72
2023/12/12 09:13:18;;;;;;;160.55;32.08;;;;;;;;;;4986045;28;20054;-73
2023/12/12 09:15:44;;;;;;;251.27;36.65;;;;;;;;;;4980863;28;20054;-73
2023/12/12 09:18:10;;;;;;;168.90;29.75;;;;;;;;;;4983807;28;20046;-73
2023/12/12 09:20:36;;;;;;;99.10;28.95;;;;;;;;;;4981407;28;20042;-73
2023/12/12 09:23:02;;;;;;;89.30;30.85;;;;;;;;;;4979400;28;20092;-73
2023/12/12 09:25:28;;;;;;;74.63;30.65;;;;;;;;;;4983332;28;20038;-73
2023/12/12 09:27:54;;;;;;;86.47;29.95;;;;;;;;;;4981692;28;20053;-73
2023/12/12 09:30:20;;;;;;;76.95;29.83;;;;;;;;;;4982907;28;20353;-73
2023/12/12 09:32:47;;;;;;;74.88;31.30;;;;;;;;;;4982672;28;20065;-73
2023/12/12 09:35:14;;;;;;;77.78;34.03;;;;;;;;;;4982462;28;20085;-73
2023/12/12 09:37:40;;;;;;;68.35;29.00;;;;;;;;;;4980597;28;20413;-72
2023/12/12 09:40:06;;;;;;;94.57;32.38;;;;;;;;;;4966806;28;20049;-72
2023/12/12 09:42:34;;;;;;;106.70;31.70;;;;;;;;;;4982545;28;20049;-73
2023/12/12 09:45:00;;;;;;;89.88;31.50;;;;;;;;;;4981014;28;20097;-72
2023/12/12 09:47:31;;;;;;;80.47;30.92;;;;;;;;;;4982884;28;20057;-73
2023/12/12 09:50:00;;;;;;;52.13;26.27;;;;;;;;;;4978576;28;20046;-73
2023/12/12 09:52:29;;;;;;;63.70;31.40;;;;;;;;;;4966564;28;20129;-72
2023/12/12 09:54:55;;;;;;;64.07;29.17;;;;;;;;;;4983207;28;20050;-72
2023/12/12 09:57:21;;;;;;;54.85;26.77;;;;;;;;;;4982283;28;20046;-72
2023/12/12 09:59:47;;;;;;;53.28;28.65;;;;;;;;;;4983391;28;20038;-72
2023/12/12 10:02:23;;;;;;;58.22;26.95;;;;;;;;;;4979023;28;20054;-72
2023/12/12 10:04:52;;;;;;;51.88;25.63;;;;;;;;;;4982178;28;20719;-72
2023/12/12 10:07:19;;;;;;;57.83;25.63;;;;;;;;;;4966317;28;20050;-72
2023/12/12 10:09:46;;;;;;;50.75;26.42;;;;;;;;;;4980587;28;20042;-72
2023/12/12 10:12:12;;;;;;;48.22;22.00;;;;;;;;;;4982743;28;20470;-72
2023/12/12 10:14:47;;;;;;;42.97;22.92;;;;;;;;;;4980954;28;20400;-72
2023/12/12 10:17:13;;;;;;;44.25;23.15;;;;;;;;;;4991483;28;20100;-73
2023/12/12 10:19:39;;;;;;;49.65;23.90;;;;;;;;;;4983514;28;20038;-72
2023/12/12 10:22:06;;;;;;;42.25;22.10;;;;;;;;;;4982240;28;20784;-73
2023/12/12 10:24:32;;;;;;;33.65;16.70;;;;;;;;;;4983009;28;20129;-73
2023/12/12 10:26:59;;;;;;;44.47;21.02;;;;;;;;;;4982621;28;20038;-73
2023/12/12 10:29:25;;;;;;;35.83;20.10;;;;;;;;;;4982621;28;20703;-73
2023/12/12 10:31:53;;;;;;;41.40;21.02;;;;;;;;;;4981949;28;20038;-73
2023/12/12 10:34:19;;;;;;;48.65;21.77;;;;;;;;;;4979144;28;20803;-72
2023/12/12 10:36:49;;;;;;;37.95;21.58;;;;;;;;;;4978280;28;20109;-73
2023/12/12 10:39:15;;;;;;;44.30;22.45;;;;;;;;;;4979642;28;20053;-73
2023/12/12 10:41:58;;;;;;;40.53;23.55;;;;;;;;;;4983169;28;20124;-74
2023/12/12 10:44:34;;;;;;;45.70;23.67;;;;;;;;;;4975357;28;20069;-72
2023/12/12 10:47:01;;;;;;;42.92;22.17;;;;;;;;;;4977934;28;20073;-72
2023/12/12 10:49:29;;;;;;;40.22;23.67;;;;;;;;;;4981678;28;20049;-72
2023/12/12 10:51:55;;;;;;;47.25;23.10;;;;;;;;;;4981527;28;20049;-73
2023/12/12 10:54:24;;;;;;;46.03;22.00;;;;;;;;;;4965500;28;20424;-73
2023/12/12 10:56:52;;;;;;;40.90;23.73;;;;;;;;;;4965296;28;20073;-74
2023/12/12 10:59:18;;;;;;;42.40;23.10;;;;;;;;;;4963707;28;20042;-72
2023/12/12 11:01:48;;;;;;;43.13;22.70;;;;;;;;;;4978154;28;20056;-72
2023/12/12 11:04:17;;;;;;;32.22;17.95;;;;;;;;;;4981169;28;20051;-73
2023/12/12 11:06:44;;;;;;;48.00;23.67;;;;;;;;;;4965580;28;20052;-72
2023/12/12 11:09:10;;;;;;;43.72;24.02;;;;;;;;;;4982821;28;20047;-73
2023/12/12 11:11:47;;;;;;;48.63;24.13;;;;;;;;;;4979835;28;20585;-72
2023/12/12 11:14:14;;;;;;;41.53;22.98;;;;;;;;;;4981559;28;20069;-72
2023/12/12 11:16:43;;;;;;;45.90;21.27;;;7.30;99.90;;;;;;4980728;28;20161;-72
2023/12/12 11:19:18;;;;;;;37.67;21.20;;;;;;;;;;4983164;28;20045;-70
2023/12/12 11:21:46;;;;;;;43.65;23.92;;;;;;;;;;4981073;28;20213;-71
2023/12/12 11:24:12;;;;;;;45.28;22.13;;;;;;;;;;4986812;28;20703;-70
2023/12/12 11:26:40;;;;;;;46.85;22.92;;;7.50;99.90;;;;;;4983953;28;20050;-70
2023/12/12 11:29:06;;;;;;;46.83;24.45;;;;;;;;;;4982268;28;20269;-70
2023/12/12 11:31:36;;;;;;;47.03;25.48;;;;;;;;;;4981762;28;20049;-70
2023/12/12 11:34:03;;;;;;;44.65;22.13;;;;;;;;;;4984497;28;20062;-70
2023/12/12 11:36:47;;;;;;;50.95;24.23;;;;;;;;;;4983379;28;20042;-70
2023/12/12 11:39:13;;;;;;;27.52;16.13;;;;;;;;;;4977961;28;20137;-70
2023/12/12 11:41:39;;;;;;;47.47;24.00;;;;;;;;;;4979156;28;20054;-70
2023/12/12 11:44:05;;;;;;;52.08;24.05;;;;;;;;;;4974816;28;20046;-70
2023/12/12 11:46:32;;;;;;;45.42;25.38;;;;;;;;;;4978614;28;20042;-70
2023/12/12 11:49:17;;;;;;;44.63;24.33;;;;;;;;;;4978898;28;20516;-70
2023/12/12 11:51:49;;;;;;;32.78;18.35;;;;;;;;;;4975487;28;20046;-69
2023/12/12 11:54:24;;;;;;;45.53;22.48;;;;;;;;;;4980144;28;20104;-70
2023/12/12 11:56:50;;;;;;;;;;;;;;;;;;4980095;28;20050;-70
2023/12/12 11:59:23;;;;;;;50.67;22.60;;;;;;;;;;4981536;28;19922;-70
2023/12/12 12:01:49;;;;;;;44.90;22.83;;;;;;;;;;4963785;28;20132;-70
2023/12/12 12:04:15;;;;;;;46.55;22.10;;;;;;;;;;4981425;28;20525;-70
2023/12/12 12:06:43;;;;;;;41.10;19.20;;;;;;;;;;4981430;28;20050;-71
2023/12/12 12:09:09;;;;;;;36.47;22.15;;;;;;;;;;4964296;28;20046;-71
2023/12/12 12:11:39;;;;;;;41.63;22.55;;;;;;;;;;4981829;28;20045;-70
2023/12/12 12:14:05;;;;;;;36.20;17.67;;;;;;;;;;4977846;28;20701;-71
2023/12/12 12:16:31;;;;;;;40.90;18.63;;;;;;;;;;4985864;28;20057;-70
2023/12/12 12:18:57;;;;;;;37.53;18.65;;;;;;;;;;4982924;28;20038;-70
2023/12/12 12:21:26;;;;;;;47.88;22.80;;;;;;;;;;4982545;28;20046;-70
2023/12/12 12:23:53;;;;;;;50.63;22.98;;;;;;;;;;4966544;28;20046;-71
2023/12/12 12:26:22;;;;;;;42.35;19.60;;;;;;;;;;4961812;28;20034;-70
2023/12/12 12:28:48;;;;;;;32.88;17.15;;;;;;;;;;4972234;28;20125;-69
2023/12/12 12:31:14;;;;;;;36.15;17.63;;;;;;;;;;4984277;28;20121;-70
2023/12/12 12:33:40;;;;;;;38.72;17.92;;;;;;;;;;4983236;28;20052;-71
2023/12/12 12:36:06;;;;;;;26.42;12.63;;;;;;;;;;4984457;28;20123;-71
2023/12/12 12:38:32;;;;;;;50.10;24.00;;;;;;;;;;4980192;28;20124;-71
2023/12/12 12:40:59;;;;;;;41.40;20.05;;;;;;;;;;4984574;28;20581;-71
2023/12/12 12:43:25;;;;;;;43.53;20.38;;;;;;;;;;4983005;28;20090;-70
2023/12/12 12:45:52;;;;;;;50.88;22.55;;;;;;;;;;4981898;28;20061;-70
2023/12/12 12:48:18;;;;;;;49.60;22.67;;;;;;;;;;4982473;28;20050;-72
2023/12/12 12:50:48;;;;;;;45.08;21.05;;;;;;;;;;4984434;28;20050;-71
2023/12/12 12:53:14;;;;;;;43.70;18.90;;;;;;;;;;4985664;28;20186;-71
2023/12/12 12:55:42;;;;;;;55.17;22.75;;;;;;;;;;4967848;28;20053;-71
2023/12/12 12:58:09;;;;;;;57.45;23.88;;;;;;;;;;4986742;28;20042;-71
2023/12/12 13:00:35;;;;;;;62.80;25.95;;;;;;;;;;4983772;28;20129;-72
2023/12/12 13:03:03;;;;;;;56.90;23.85;;;;;;;;;;4983852;28;20048;-72
2023/12/12 13:05:29;;;;;;;65.82;25.83;;;;;;;;;;4983300;28;20077;-72
2023/12/12 13:07:56;;;;;;;57.95;23.90;;;;;;;;;;4984762;28;20599;-71
2023/12/12 13:10:22;;;;;;;61.78;24.55;;;;;;;;;;4984712;28;20053;-72
2023/12/12 13:12:48;;;;;;;62.30;26.17;;;;;;;;;;4984740;28;20125;-71
2023/12/12 13:15:14;;;;;;;62.63;25.88;;;;;;;;;;4983046;28;20093;-71
2023/12/12 13:17:40;;;;;;;55.08;22.63;;;;;;;;;;4982797;28;20105;-70
2023/12/12 13:20:10;;;;;;;48.55;18.27;;;;;;;;;;4985508;28;20041;-70
2023/12/12 13:22:44;;;;;;;66.15;26.00;;;;;;;;;;4983773;28;20112;-70
2023/12/12 13:25:10;;;;;;;68.13;25.30;;;;;;;;;;4984164;28;20045;-69
2023/12/12 13:27:37;;;;;;;65.10;27.33;;;;;;;;;;4984366;28;20038;-70
2023/12/12 13:30:06;;;;;;;70.00;27.40;;;;;;;;;;4984581;28;20054;-70
2023/12/12 13:32:36;;;;;;;58.78;25.73;;;;;;;;;;4984276;28;20046;-70
2023/12/12 13:35:02;;;;;;;77.15;28.17;;;;;;;;;;4983201;28;20151;-70
2023/12/12 13:37:29;;;;;;;65.32;27.13;;;;;;;;;;4983004;28;20503;-70
2023/12/12 13:39:55;;;;;;;55.67;21.60;;;;;;;;;;4983110;28;20055;-70
2023/12/12 13:42:23;;;;;;;60.03;25.95;;;;;;;;;;4984568;28;20514;-70
2023/12/12 13:44:49;;;;;;;64.10;29.77;;;;;;;;;;4981907;28;20054;-70
2023/12/12 13:47:15;;;;;;;64.55;25.95;;;;;;;;;;4984766;28;20074;-70
2023/12/12 13:49:41;;;;;;;72.40;28.88;;;;;;;;;;4983873;28;20129;-72
2023/12/12 13:52:07;;;;;;;66.60;25.00;;;;;;;;;;4984397;28;20041;-71
2023/12/12 13:54:34;;;;;;;65.05;26.95;;;;;;;;;;4982955;28;20050;-70
2023/12/12 13:57:00;;;;;;;70.35;30.13;;;;;;;;;;4984434;28;20101;-71
2023/12/12 13:59:26;;;;;;;69.35;29.77;;;;;;;;;;4983044;28;20378;-71
2023/12/12 14:01:52;;;;;;;61.15;26.67;;;;;;;;;;4984628;28;20046;-71
2023/12/12 14:04:19;;;;;;;59.88;25.40;;;;;;;;;;4984035;28;20878;-71
2023/12/12 14:06:45;;;;;;;69.65;27.80;;;;;;;;;;4978322;28;20046;-71
2023/12/12 14:09:11;;;;;;;56.60;21.25;;;;;;;;;;4977681;28;20113;-71
2023/12/12 14:11:37;;;;;;;55.53;20.90;;;;;;;;;;4979654;28;20078;-71
2023/12/12 14:14:03;;;;;;;46.63;19.75;;;;;;;;;;4981604;28;20061;-72
2023/12/12 14:16:30;;;;;;;66.93;25.77;;;;;;;;;;4979401;28;20050;-72
2023/12/12 14:18:56;;;;;;;66.32;24.73;;;;;;;;;;4982712;28;20047;-72
2023/12/12 14:21:22;;;;;;;76.93;27.95;;;;;;;;;;4983587;28;20038;-72